Time;durP1;ratioP1;P1;durP2;ratioP2;P2;SDS_P1;SDS_P2;PMS_P1;PMS_P2;Temp;Humidity;BMP_temperature;BMP_pressure;BME280_temperature;BME280_humidity;BME280_pressure;Samples;Min_cycle;Max_cycle;Signal;HPM_P1;HPM_P2
2020/12/17 06:02:35;;;;;;;25.03;11.30;;;4.00;97.30;;;;;;5185992;23;20555;-69
2020/12/17 06:05:11;;;;;;;25.10;11.00;;;4.00;97.30;;;;;;4915851;29;20440;-69
2020/12/17 06:07:50;;;;;;;23.40;10.03;;;4.10;97.30;;;;;;4919236;29;20906;-70
2020/12/17 06:10:21;;;;;;;20.80;11.27;;;4.10;97.30;;;;;;4917311;29;20431;-69
2020/12/17 06:12:50;;;;;;;29.17;10.87;;;4.10;97.30;;;;;;4916987;29;20480;-70
2020/12/17 06:15:24;;;;;;;26.70;12.03;;;4.10;97.30;;;;;;4917178;29;20777;-71
2020/12/17 06:17:56;;;;;;;27.10;12.77;;;4.10;97.30;;;;;;4913165;29;20429;-70
2020/12/17 06:20:24;;;;;;;20.13;10.73;;;4.20;97.30;;;;;;4916272;29;20417;-69
2020/12/17 06:22:52;;;;;;;25.43;11.83;;;4.20;97.30;;;;;;4915494;29;20448;-69
2020/12/17 06:25:19;;;;;;;26.23;11.23;;;4.20;97.30;;;;;;4919614;29;20934;-70
2020/12/17 06:27:49;;;;;;;21.63;11.20;;;4.20;97.30;;;;;;4926040;29;20425;-70
2020/12/17 06:30:17;;;;;;;25.03;11.07;;;4.20;97.30;;;;;;4926883;29;20424;-70
2020/12/17 06:32:44;;;;;;;20.30;10.50;;;4.20;97.30;;;;;;4926630;29;20455;-70
2020/12/17 06:35:39;;;;;;;20.47;10.60;;;4.30;97.30;;;;;;4919603;29;20437;-69
2020/12/17 06:38:11;;;;;;;26.03;11.73;;;4.30;97.30;;;;;;4924404;29;20428;-69
2020/12/17 06:40:38;;;;;;;23.37;10.20;;;4.30;97.30;;;;;;4914333;29;20838;-69
2020/12/17 06:43:11;;;;;;;24.03;10.90;;;4.30;97.30;;;;;;4917508;29;20957;-69
2020/12/17 06:45:37;;;;;;;22.63;10.63;;;4.40;97.30;;;;;;4916114;29;20444;-69
2020/12/17 06:48:32;;;;;;;23.73;9.87;;;4.40;97.30;;;;;;4916300;29;20787;-70
2020/12/17 06:51:00;;;;;;;19.70;9.27;;;4.40;97.30;;;;;;4906606;29;20903;-69
2020/12/17 06:53:41;;;;;;;23.80;10.37;;;4.50;97.30;;;;;;4915893;29;20473;-69
2020/12/17 06:56:15;;;;;;;20.30;9.60;;;4.50;97.30;;;;;;4916649;29;20519;-69
2020/12/17 06:58:42;;;;;;;25.90;9.97;;;4.50;97.30;;;;;;4915944;29;20519;-69
2020/12/17 07:01:25;;;;;;;21.83;9.90;;;4.50;97.30;;;;;;4915690;29;20599;-69
2020/12/17 07:03:51;;;;;;;19.23;10.43;;;4.60;97.30;;;;;;4915947;29;20768;-69
2020/12/17 07:06:23;;;;;;;20.90;9.87;;;4.60;97.30;;;;;;4916174;29;20424;-70
2020/12/17 07:08:53;;;;;;;22.83;10.77;;;4.60;97.30;;;;;;4917459;29;20409;-69
2020/12/17 07:11:40;;;;;;;20.23;9.50;;;4.60;97.30;;;;;;4917050;29;20445;-69
2020/12/17 07:14:25;;;;;;;17.97;9.67;;;4.60;97.30;;;;;;4915683;29;20412;-69
2020/12/17 07:16:59;;;;;;;21.80;10.47;;;4.60;97.30;;;;;;4916032;29;20756;-69
2020/12/17 07:19:27;;;;;;;20.73;9.40;;;4.60;97.30;;;;;;4917435;29;20448;-69
2020/12/17 07:22:01;;;;;;;22.30;9.70;;;4.60;97.30;;;;;;4917819;29;21021;-70
2020/12/17 07:24:56;;;;;;;22.30;9.90;;;4.60;97.30;;;;;;4915607;29;20433;-69
2020/12/17 07:27:29;;;;;;;16.87;9.00;;;4.70;97.30;;;;;;4901521;29;20515;-70
2020/12/17 07:29:58;;;;;;;25.13;10.20;;;4.70;97.30;;;;;;4897084;29;20994;-70
2020/12/17 07:32:35;;;;;;;18.33;8.90;;;4.70;97.30;;;;;;4896936;29;20477;-70
2020/12/17 07:35:07;;;;;;;18.27;9.30;;;4.70;97.30;;;;;;4913036;29;20401;-69
2020/12/17 07:37:37;;;;;;;17.60;9.77;;;4.70;97.30;;;;;;4917194;29;20459;-69
2020/12/17 07:40:12;;;;;;;19.43;8.80;;;4.70;97.30;;;;;;4915846;29;20448;-69
2020/12/17 07:42:38;;;;;;;17.57;9.17;;;4.80;97.30;;;;;;4917049;29;20894;-69
2020/12/17 07:45:05;;;;;;;19.17;9.07;;;4.80;97.30;;;;;;4916693;29;20964;-70
2020/12/17 07:47:31;;;;;;;24.80;10.57;;;4.80;97.30;;;;;;4915971;29;20475;-70
2020/12/17 07:49:58;;;;;;;22.53;11.00;;;4.80;97.30;;;;;;4915711;29;20922;-69
2020/12/17 07:52:32;;;;;;;17.67;8.60;;;4.90;97.30;;;;;;4917648;29;20228;-70
2020/12/17 07:54:59;;;;;;;20.60;9.60;;;4.90;97.30;;;;;;4916684;29;20424;-69
2020/12/17 07:57:28;;;;;;;18.60;8.87;;;4.90;97.30;;;;;;4915405;29;20420;-70
2020/12/17 07:59:54;;;;;;;15.90;9.23;;;5.00;97.30;;;;;;4916733;29;20414;-69
2020/12/17 08:02:20;;;;;;;18.87;8.97;;;5.00;97.30;;;;;;4916779;29;20523;-70
2020/12/17 08:04:53;;;;;;;20.83;9.40;;;5.00;97.30;;;;;;4914720;29;20425;-69
2020/12/17 08:07:20;;;;;;;19.57;9.50;;;5.10;97.30;;;;;;4915515;29;20537;-69
2020/12/17 08:10:01;;;;;;;17.47;8.97;;;5.10;97.30;;;;;;4915560;29;20424;-71
2020/12/17 08:12:26;;;;;;;22.73;10.37;;;5.10;97.30;;;;;;4903921;29;20472;-70
2020/12/17 08:14:53;;;;;;;17.13;8.93;;;5.10;97.30;;;;;;4915318;29;20769;-69
2020/12/17 08:17:20;;;;;;;18.87;9.40;;;5.10;97.30;;;;;;4915500;29;20173;-69
2020/12/17 08:19:57;;;;;;;17.93;8.43;;;5.20;97.30;;;;;;4916924;29;20992;-69
2020/12/17 08:22:28;;;;;;;18.67;8.90;;;5.20;97.30;;;;;;4915380;29;20444;-70
2020/12/17 08:25:04;;;;;;;21.10;11.13;;;5.20;97.30;;;;;;4902470;29;20801;-70
2020/12/17 08:27:30;;;;;;;18.13;9.33;;;5.20;97.30;;;;;;4916738;29;20427;-69
2020/12/17 08:29:56;;;;;;;21.40;10.67;;;5.30;97.30;;;;;;4915657;29;20425;-68
2020/12/17 08:32:22;;;;;;;21.23;10.70;;;5.30;97.30;;;;;;4915297;29;20208;-68
2020/12/17 08:34:55;;;;;;;19.73;9.37;;;5.40;97.30;;;;;;4912650;29;20472;-68
2020/12/17 08:37:26;;;;;;;22.87;10.87;;;5.40;97.30;;;;;;4900889;29;20764;-68
2020/12/17 08:40:05;;;;;;;21.40;10.80;;;5.50;97.30;;;;;;4914248;29;20436;-67
2020/12/17 08:42:36;;;;;;;24.27;10.00;;;5.50;97.30;;;;;;4915906;29;20487;-70
2020/12/17 08:45:08;;;;;;;22.57;11.53;;;5.60;97.30;;;;;;4916320;29;20471;-69
2020/12/17 08:47:37;;;;;;;15.20;9.00;;;5.60;97.30;;;;;;4919134;29;20416;-69
2020/12/17 08:50:05;;;;;;;19.33;9.80;;;5.60;97.30;;;;;;4919821;29;20408;-69
2020/12/17 08:52:32;;;;;;;21.00;10.30;;;5.70;97.30;;;;;;4918807;29;20516;-70
2020/12/17 08:55:05;;;;;;;23.77;10.23;;;5.70;97.30;;;;;;4917842;29;20437;-69
2020/12/17 08:57:31;;;;;;;19.90;10.10;;;5.80;97.30;;;;;;4919709;29;20424;-69
2020/12/17 08:59:57;;;;;;;20.77;9.30;;;5.90;97.30;;;;;;4918246;29;20422;-70
2020/12/17 09:02:27;;;;;;;17.93;9.20;;;5.90;97.30;;;;;;4917572;29;20460;-70
2020/12/17 09:04:57;;;;;;;22.17;9.70;;;6.00;97.30;;;;;;4917937;29;20195;-70
2020/12/17 09:07:27;;;;;;;17.53;8.80;;;6.10;97.30;;;;;;4919177;29;20445;-69
2020/12/17 09:09:54;;;;;;;19.17;8.70;;;6.10;97.30;;;;;;4919079;29;20431;-70
2020/12/17 09:12:28;;;;;;;18.97;9.27;;;6.20;97.30;;;;;;4918645;29;20464;-70
2020/12/17 09:14:55;;;;;;;17.33;8.60;;;6.20;97.30;;;;;;4918090;29;20476;-69
2020/12/17 09:17:21;;;;;;;20.77;8.90;;;6.30;97.30;;;;;;4919122;29;20498;-69
2020/12/17 09:19:48;;;;;;;23.60;9.00;;;6.30;97.30;;;;;;4919223;29;20492;-69
2020/12/17 09:22:19;;;;;;;22.23;8.80;;;6.30;97.30;;;;;;4917260;29;20812;-69
2020/12/17 09:24:49;;;;;;;17.33;8.00;;;6.40;97.30;;;;;;4917192;29;20421;-68
2020/12/17 09:27:23;;;;;;;21.67;8.83;;;6.40;97.30;;;;;;4917845;29;20520;-69
2020/12/17 09:30:13;;;;;;;22.30;8.97;;;6.50;97.30;;;;;;4915471;29;20437;-68
2020/12/17 09:32:49;;;;;;;24.43;9.10;;;6.50;97.30;;;;;;4916925;29;20464;-69
2020/12/17 09:35:16;;;;;;;19.23;9.07;;;6.50;97.30;;;;;;4916319;29;20465;-69
2020/12/17 09:38:00;;;;;;;16.93;8.00;;;6.60;97.30;;;;;;4917256;29;20417;-69
2020/12/17 09:40:26;;;;;;;17.83;9.40;;;6.60;97.30;;;;;;4917506;29;20520;-69
2020/12/17 09:43:09;;;;;;;21.90;10.80;;;6.70;97.30;;;;;;4917390;29;20436;-70
2020/12/17 09:45:38;;;;;;;18.53;10.07;;;6.70;97.30;;;;;;4916720;29;21009;-70
2020/12/17 09:48:30;;;;;;;20.87;9.67;;;6.80;97.30;;;;;;4917394;29;20472;-69
2020/12/17 09:51:01;;;;;;;18.50;8.30;;;6.80;97.30;;;;;;4916836;29;20555;-69
2020/12/17 09:53:37;;;;;;;30.03;15.60;;;6.80;97.30;;;;;;4917199;29;20464;-69
2020/12/17 09:56:09;;;;;;;36.73;16.03;;;6.80;97.30;;;;;;4917106;29;20961;-70
2020/12/17 09:58:37;;;;;;;18.90;8.37;;;6.80;97.30;;;;;;4917134;29;20405;-69
2020/12/17 10:01:04;;;;;;;444.30;156.63;;;6.90;97.30;;;;;;4919027;29;20460;-69
2020/12/17 10:03:30;;;;;;;37.87;14.80;;;6.90;97.30;;;;;;4917215;29;20471;-69
2020/12/17 10:05:55;;;;;;;269.50;104.97;;;6.90;97.30;;;;;;4917341;29;20429;-69
2020/12/17 10:08:21;;;;;;;79.17;34.10;;;6.90;97.30;;;;;;4918539;29;20413;-69
2020/12/17 10:10:47;;;;;;;39.73;19.17;;;7.00;97.30;;;;;;4917034;29;20207;-70
2020/12/17 10:13:12;;;;;;;28.37;12.93;;;6.90;97.30;;;;;;4917892;29;20208;-69
2020/12/17 10:15:40;;;;;;;50.47;28.30;;;6.90;97.30;;;;;;4918174;29;20173;-69
2020/12/17 10:18:06;;;;;;;59.27;33.00;;;7.00;97.30;;;;;;4917116;29;20192;-70
2020/12/17 10:20:31;;;;;;;23.53;10.27;;;7.00;97.30;;;;;;4917234;29;20499;-69
2020/12/17 10:22:57;;;;;;;36.60;20.10;;;7.00;97.30;;;;;;4916968;29;20926;-69
2020/12/17 10:25:23;;;;;;;20.23;9.37;;;7.10;97.30;;;;;;4916819;29;20200;-69
2020/12/17 10:27:52;;;;;;;15.70;8.70;;;7.10;97.30;;;;;;4917932;29;20186;-70
2020/12/17 10:30:17;;;;;;;17.30;9.30;;;7.20;97.30;;;;;;4916552;29;20425;-70
2020/12/17 10:32:43;;;;;;;20.17;9.93;;;7.20;97.30;;;;;;4917799;29;20471;-70
2020/12/17 10:35:10;;;;;;;15.80;8.60;;;7.30;97.30;;;;;;4916260;29;20181;-68
2020/12/17 10:37:38;;;;;;;17.67;10.77;;;7.30;97.30;;;;;;4917670;29;20254;-69
2020/12/17 10:40:04;;;;;;;17.60;9.03;;;7.40;97.30;;;;;;4916783;29;20421;-69
2020/12/17 10:42:30;;;;;;;14.73;7.83;;;7.70;97.30;;;;;;4916299;29;20509;-69
2020/12/17 10:44:56;;;;;;;19.10;9.00;;;7.70;97.30;;;;;;4917692;29;20180;-70
2020/12/17 10:47:21;;;;;;;18.90;9.97;;;7.70;97.30;;;;;;4916034;29;20180;-70
2020/12/17 10:49:48;;;;;;;16.77;8.00;;;7.60;97.30;;;;;;4914716;29;20428;-73
2020/12/17 10:52:14;;;;;;;14.70;6.97;;;7.60;97.30;;;;;;4909004;29;20216;-70
2020/12/17 10:54:40;;;;;;;19.33;9.40;;;7.50;97.30;;;;;;4916317;29;20427;-70
2020/12/17 10:57:06;;;;;;;20.13;12.00;;;7.40;97.30;;;;;;4917139;29;20480;-71
2020/12/17 10:59:32;;;;;;;19.17;9.90;;;7.40;97.30;;;;;;4915844;29;20421;-70
2020/12/17 11:01:59;;;;;;;17.50;8.20;;;7.40;97.30;;;;;;4915434;29;20677;-70
2020/12/17 11:04:25;;;;;;;17.50;9.90;;;7.40;97.30;;;;;;4924357;29;20432;-70
2020/12/17 11:06:56;;;;;;;19.47;9.77;;;7.30;97.30;;;;;;4919484;29;20416;-70
2020/12/17 11:09:23;;;;;;;12.60;7.23;;;7.40;97.30;;;;;;4923142;29;20640;-71
2020/12/17 11:11:53;;;;;;;15.10;8.77;;;7.50;97.30;;;;;;4919150;29;20504;-70
2020/12/17 11:14:22;;;;;;;19.90;9.07;;;7.60;97.30;;;;;;4915833;29;20989;-70
2020/12/17 11:16:49;;;;;;;27.67;15.10;;;7.90;97.30;;;;;;4915515;29;20526;-71
2020/12/17 11:19:15;;;;;;;16.80;7.93;;;8.20;97.30;;;;;;4914149;29;20958;-70
2020/12/17 11:21:41;;;;;;;17.73;9.80;;;8.60;97.30;;;;;;4915824;29;20441;-70
2020/12/17 11:24:07;;;;;;;15.60;9.60;;;8.70;97.30;;;;;;4916501;29;20484;-70
2020/12/17 11:26:33;;;;;;;34.00;22.40;;;8.80;97.30;;;;;;4916068;29;20271;-70
2020/12/17 11:29:03;;;;;;;14.83;6.80;;;8.90;97.30;;;;;;4915330;29;20420;-71
2020/12/17 11:31:34;;;;;;;15.53;8.20;;;9.00;97.30;;;;;;4914436;29;20445;-70
2020/12/17 11:34:00;;;;;;;41.27;28.17;;;9.10;97.30;;;;;;4922947;29;20420;-71
2020/12/17 11:36:26;;;;;;;14.90;7.17;;;9.30;97.30;;;;;;4923079;29;20979;-71
2020/12/17 11:38:52;;;;;;;11.47;6.07;;;9.50;97.30;;;;;;4914787;29;20409;-70
2020/12/17 11:41:18;;;;;;;20.40;10.50;;;9.70;97.30;;;;;;4916361;29;20331;-70
2020/12/17 11:43:43;;;;;;;12.60;7.07;;;9.90;97.30;;;;;;4914838;29;20617;-71
2020/12/17 11:46:09;;;;;;;10.90;7.27;;;9.80;97.30;;;;;;4915542;29;20447;-70
2020/12/17 11:48:34;;;;;;;10.63;6.40;;;9.90;97.30;;;;;;4915822;29;20188;-71
2020/12/17 11:51:01;;;;;;;12.70;6.40;;;9.90;97.30;;;;;;4915132;29;20200;-70
2020/12/17 11:53:28;;;;;;;26.87;15.13;;;9.90;97.30;;;;;;4915939;29;20284;-71
2020/12/17 11:55:54;;;;;;;12.50;7.70;;;10.00;97.30;;;;;;4914159;29;20421;-70
2020/12/17 11:58:20;;;;;;;9.47;5.90;;;10.10;97.30;;;;;;4915009;29;20472;-70
2020/12/17 12:00:47;;;;;;;9.90;6.97;;;10.00;97.30;;;;;;4914367;29;20204;-71
2020/12/17 12:03:13;;;;;;;13.63;6.60;;;10.00;97.30;;;;;;4909806;29;21029;-70
2020/12/17 12:05:39;;;;;;;12.93;6.13;;;10.20;97.30;;;;;;4915257;29;20429;-71
2020/12/17 12:08:04;;;;;;;12.23;6.93;;;10.30;96.90;;;;;;4915032;29;20185;-71
2020/12/17 12:10:30;;;;;;;13.47;7.20;;;10.40;96.80;;;;;;4915200;29;20193;-70
2020/12/17 12:13:00;;;;;;;14.73;7.73;;;10.60;96.70;;;;;;4915250;29;20236;-70
2020/12/17 12:15:26;;;;;;;11.00;5.60;;;10.70;96.60;;;;;;4915097;29;20456;-70
2020/12/17 12:17:53;;;;;;;23.47;13.37;;;10.60;96.20;;;;;;4914848;29;20444;-70
2020/12/17 12:20:19;;;;;;;17.23;8.87;;;10.60;96.50;;;;;;4915186;29;20416;-70
2020/12/17 12:22:46;;;;;;;12.40;5.87;;;10.70;96.70;;;;;;4918303;29;20421;-70
2020/12/17 12:25:11;;;;;;;14.03;8.27;;;10.80;96.20;;;;;;4919429;29;20420;-70
2020/12/17 12:27:37;;;;;;;15.73;6.40;;;10.80;96.30;;;;;;4919963;29;20464;-71
2020/12/17 12:30:03;;;;;;;14.33;6.20;;;10.90;96.00;;;;;;4919484;29;20184;-71
2020/12/17 12:32:30;;;;;;;37.03;19.73;;;10.90;95.90;;;;;;4920292;29;20204;-71
2020/12/17 12:34:56;;;;;;;11.50;6.93;;;11.10;96.00;;;;;;4917423;29;20468;-71
2020/12/17 12:37:21;;;;;;;9.40;5.60;;;11.30;95.40;;;;;;4918038;29;20467;-71
2020/12/17 12:39:47;;;;;;;11.70;6.70;;;11.30;95.00;;;;;;4919618;29;20259;-70
2020/12/17 12:42:13;;;;;;;18.47;7.27;;;11.30;95.00;;;;;;4918500;29;20659;-71
2020/12/17 12:44:39;;;;;;;11.17;5.90;;;11.50;94.70;;;;;;4917868;29;20177;-70
2020/12/17 12:47:05;;;;;;;9.63;5.30;;;11.50;94.40;;;;;;4918353;29;20424;-71
2020/12/17 12:49:30;;;;;;;12.23;6.63;;;11.40;94.50;;;;;;4918481;29;20194;-70
2020/12/17 12:51:56;;;;;;;11.70;6.00;;;11.30;94.70;;;;;;4918401;29;21020;-70
2020/12/17 12:54:22;;;;;;;14.70;6.27;;;11.50;94.70;;;;;;4917881;29;20189;-70
2020/12/17 12:56:47;;;;;;;13.23;7.90;;;11.70;94.10;;;;;;4918528;29;20188;-70
2020/12/17 12:59:13;;;;;;;12.83;5.27;;;11.80;93.70;;;;;;4919323;29;20177;-71
2020/12/17 13:01:40;;;;;;;8.97;5.50;;;11.60;93.80;;;;;;4919344;29;20300;-70
2020/12/17 13:04:06;;;;;;;11.20;7.00;;;11.40;94.20;;;;;;4919384;29;20208;-70
2020/12/17 13:06:32;;;;;;;12.00;7.20;;;11.30;94.90;;;;;;4918147;29;20508;-70
2020/12/17 13:09:02;;;;;;;10.33;5.33;;;11.00;95.30;;;;;;4918073;29;20864;-70
2020/12/17 13:11:28;;;;;;;8.13;5.00;;;10.70;96.20;;;;;;4918034;29;20543;-70
2020/12/17 13:13:54;;;;;;;9.40;6.00;;;10.30;97.10;;;;;;4917746;29;20544;-70
2020/12/17 13:16:28;;;;;;;8.90;5.50;;;10.10;97.30;;;;;;4919325;29;20464;-70
2020/12/17 13:18:55;;;;;;;20.50;10.47;;;9.90;97.30;;;;;;4917660;29;20580;-70
2020/12/17 13:21:22;;;;;;;12.63;6.37;;;9.80;97.30;;;;;;4918891;29;20429;-70
2020/12/17 13:23:50;;;;;;;9.20;5.00;;;9.80;97.30;;;;;;4918670;29;20428;-70
2020/12/17 13:26:17;;;;;;;11.90;6.00;;;9.70;97.30;;;;;;4917889;29;20457;-70
2020/12/17 13:28:43;;;;;;;11.40;5.90;;;9.70;97.30;;;;;;4917796;29;20543;-71
2020/12/17 13:31:09;;;;;;;9.93;5.27;;;9.60;97.30;;;;;;4918596;29;20874;-70
2020/12/17 13:33:36;;;;;;;9.50;6.03;;;9.70;97.30;;;;;;4918840;29;20556;-70
2020/12/17 13:36:04;;;;;;;13.07;6.50;;;9.60;97.30;;;;;;4918759;29;20172;-71
2020/12/17 13:38:30;;;;;;;9.20;5.80;;;9.60;97.30;;;;;;4916905;29;20508;-70
2020/12/17 13:40:56;;;;;;;17.87;8.73;;;9.60;97.30;;;;;;4908220;29;20560;-70
2020/12/17 13:43:21;;;;;;;25.47;11.00;;;9.60;97.30;;;;;;4918798;29;20176;-69
2020/12/17 13:45:49;;;;;;;12.13;6.43;;;9.60;97.30;;;;;;4917392;29;20731;-69
2020/12/17 13:48:15;;;;;;;18.83;8.20;;;9.50;97.30;;;;;;4918818;29;20228;-70
2020/12/17 13:50:41;;;;;;;19.83;8.40;;;9.50;97.30;;;;;;4918647;29;20433;-70
2020/12/17 13:53:07;;;;;;;14.80;7.20;;;9.50;97.30;;;;;;4917125;29;20464;-69
2020/12/17 13:55:32;;;;;;;24.17;9.30;;;9.50;97.30;;;;;;4917395;29;20180;-70
2020/12/17 13:57:58;;;;;;;16.70;6.43;;;9.50;97.30;;;;;;4918601;29;20657;-70
2020/12/17 14:00:24;;;;;;;31.70;13.40;;;9.50;97.30;;;;;;4916992;29;20595;-70
2020/12/17 14:02:49;;;;;;;16.07;6.50;;;9.40;97.30;;;;;;4917229;29;20279;-70
2020/12/17 14:05:15;;;;;;;29.13;11.07;;;9.40;97.30;;;;;;4917042;29;20193;-69
2020/12/17 14:07:41;;;;;;;39.60;15.40;;;9.40;97.30;;;;;;4917283;29;20213;-69
2020/12/17 14:10:07;;;;;;;23.30;10.70;;;9.40;97.30;;;;;;4916975;29;20272;-69
2020/12/17 14:12:33;;;;;;;15.70;7.37;;;9.30;97.30;;;;;;4916985;29;20468;-70
2020/12/17 14:14:58;;;;;;;7.60;4.67;;;9.30;97.30;;;;;;4918095;29;20241;-70
2020/12/17 14:17:24;;;;;;;10.27;5.90;;;9.30;97.30;;;;;;4918386;29;20189;-69
2020/12/17 14:19:49;;;;;;;10.73;6.07;;;9.30;97.30;;;;;;4917061;29;20180;-69
2020/12/17 14:22:15;;;;;;;13.10;5.87;;;9.30;97.30;;;;;;4918413;29;20232;-69
2020/12/17 14:24:41;;;;;;;10.73;6.00;;;9.20;97.30;;;;;;4917913;29;20232;-70
2020/12/17 14:27:07;;;;;;;10.43;5.27;;;9.20;97.30;;;;;;4918101;29;20654;-70
2020/12/17 14:29:32;;;;;;;11.67;5.30;;;9.10;97.30;;;;;;4916818;29;20184;-70
2020/12/17 14:32:01;;;;;;;17.63;5.60;;;9.10;97.30;;;;;;4916028;29;20208;-71
2020/12/17 14:34:27;;;;;;;9.97;5.80;;;9.00;97.30;;;;;;4917938;29;20165;-71
2020/12/17 14:36:56;;;;;;;9.10;5.87;;;8.90;97.30;;;;;;4917899;29;20421;-70
2020/12/17 14:39:23;;;;;;;11.00;5.70;;;8.90;97.30;;;;;;4916641;29;20985;-70
2020/12/17 14:41:49;;;;;;;9.23;5.97;;;8.80;97.30;;;;;;4916418;29;20440;-70
2020/12/17 14:44:14;;;;;;;11.40;6.40;;;8.80;97.30;;;;;;4917059;29;20504;-71
2020/12/17 14:46:40;;;;;;;9.03;6.10;;;8.70;97.30;;;;;;4916456;29;20208;-70
2020/12/17 14:49:06;;;;;;;14.43;7.00;;;8.60;97.30;;;;;;4916397;29;20180;-70
2020/12/17 14:51:32;;;;;;;18.07;7.20;;;8.50;97.30;;;;;;4916169;29;20204;-70
2020/12/17 14:53:57;;;;;;;13.90;6.60;;;8.50;97.30;;;;;;4915678;29;20681;-70
2020/12/17 14:56:29;;;;;;;13.40;7.03;;;8.40;97.30;;;;;;4916168;29;20421;-71
2020/12/17 14:58:56;;;;;;;17.27;7.50;;;8.40;97.30;;;;;;4916065;29;20643;-71
2020/12/17 15:01:22;;;;;;;15.43;7.27;;;8.30;97.30;;;;;;4916028;29;20469;-71
2020/12/17 15:03:47;;;;;;;13.23;7.80;;;8.30;97.30;;;;;;4916013;29;20850;-70
2020/12/17 15:06:13;;;;;;;15.30;8.00;;;8.30;97.30;;;;;;4916002;29;20189;-71
2020/12/17 15:08:39;;;;;;;16.07;8.00;;;8.20;97.30;;;;;;4917773;29;20522;-71
2020/12/17 15:11:05;;;;;;;15.20;7.20;;;8.20;97.30;;;;;;4915823;29;20292;-70
2020/12/17 15:13:31;;;;;;;11.43;6.87;;;8.20;97.30;;;;;;4916984;29;20539;-71
2020/12/17 15:15:59;;;;;;;13.97;6.90;;;8.20;97.30;;;;;;4917034;29;20424;-71
2020/12/17 15:18:24;;;;;;;13.27;7.23;;;8.20;97.30;;;;;;4916986;29;20961;-70
2020/12/17 15:21:02;;;;;;;12.30;7.53;;;8.10;97.30;;;;;;4915796;29;20439;-71
2020/12/17 15:23:35;;;;;;;13.00;7.77;;;8.10;97.30;;;;;;4915630;29;20227;-71
2020/12/17 15:26:03;;;;;;;14.27;7.23;;;8.10;97.30;;;;;;4915871;29;20472;-71
2020/12/17 15:28:28;;;;;;;12.73;7.23;;;8.10;97.30;;;;;;4917226;29;20421;-71
2020/12/17 15:30:55;;;;;;;13.03;6.87;;;8.10;97.30;;;;;;4915731;29;20452;-71
2020/12/17 15:33:22;;;;;;;13.30;7.87;;;8.00;97.30;;;;;;4915877;29;20234;-71
2020/12/17 15:35:48;;;;;;;25.63;8.90;;;8.00;97.30;;;;;;4915713;29;20523;-71
2020/12/17 15:38:15;;;;;;;12.90;7.93;;;7.90;97.30;;;;;;4917476;29;20412;-71
2020/12/17 15:40:41;;;;;;;15.33;9.30;;;7.90;97.30;;;;;;4915586;29;20527;-71
2020/12/17 15:43:08;;;;;;;13.87;8.10;;;7.90;97.30;;;;;;4915525;29;20428;-71
2020/12/17 15:45:34;;;;;;;13.33;8.30;;;7.90;97.30;;;;;;4915702;29;20511;-71
2020/12/17 15:48:00;;;;;;;17.87;8.67;;;7.90;97.30;;;;;;4915655;29;20516;-71
2020/12/17 15:50:25;;;;;;;14.83;7.60;;;7.90;97.30;;;;;;4916875;29;20476;-70
2020/12/17 15:52:51;;;;;;;15.27;7.37;;;7.90;97.30;;;;;;4915494;29;20215;-71
2020/12/17 15:55:17;;;;;;;14.07;7.73;;;7.90;97.30;;;;;;4915279;29;20185;-70
2020/12/17 15:57:42;;;;;;;17.70;8.50;;;7.90;97.30;;;;;;4919048;29;20176;-70
2020/12/17 16:00:08;;;;;;;16.47;8.33;;;7.90;97.30;;;;;;4919326;29;20180;-71
2020/12/17 16:02:34;;;;;;;15.30;8.00;;;7.90;97.30;;;;;;4919196;29;20220;-71
2020/12/17 16:04:59;;;;;;;15.53;7.60;;;7.90;97.30;;;;;;4919414;29;20184;-70
2020/12/17 16:07:32;;;;;;;17.80;8.93;;;7.90;97.30;;;;;;4920424;29;20176;-70
2020/12/17 16:09:59;;;;;;;12.60;7.77;;;7.90;97.30;;;;;;4920734;29;20184;-70
2020/12/17 16:12:25;;;;;;;11.80;7.30;;;7.80;97.30;;;;;;4920499;29;20511;-70
2020/12/17 16:14:50;;;;;;;14.73;7.80;;;7.80;97.30;;;;;;4920414;29;20412;-70
2020/12/17 16:17:16;;;;;;;12.43;7.43;;;7.80;97.30;;;;;;4920324;29;20409;-70
2020/12/17 16:19:42;;;;;;;14.23;7.03;;;7.80;97.30;;;;;;4920413;29;20177;-70
2020/12/17 16:22:08;;;;;;;14.00;7.63;;;7.90;97.30;;;;;;4919007;29;20467;-71
2020/12/17 16:24:33;;;;;;;12.23;7.67;;;7.90;97.30;;;;;;4920106;29;20263;-70
2020/12/17 16:26:59;;;;;;;16.63;9.03;;;7.90;97.30;;;;;;4918988;29;20181;-70
2020/12/17 16:29:25;;;;;;;15.50;8.37;;;7.90;97.30;;;;;;4919077;29;20181;-70
2020/12/17 16:31:54;;;;;;;13.33;7.80;;;7.90;97.30;;;;;;4918694;29;20666;-70
2020/12/17 16:34:19;;;;;;;18.47;8.20;;;7.90;97.30;;;;;;4918572;29;20642;-70
2020/12/17 16:36:55;;;;;;;14.47;8.50;;;7.90;97.30;;;;;;4918690;29;20464;-71
2020/12/17 16:39:29;;;;;;;12.37;7.33;;;7.80;97.30;;;;;;4918867;29;20176;-70
2020/12/17 16:41:56;;;;;;;14.90;8.60;;;7.80;97.30;;;;;;4918112;29;20448;-70
2020/12/17 16:44:22;;;;;;;16.50;9.07;;;7.80;97.30;;;;;;4918134;29;20840;-70
2020/12/17 16:46:55;;;;;;;13.77;7.60;;;7.80;97.30;;;;;;4918638;29;20425;-71
2020/12/17 16:49:21;;;;;;;13.60;7.17;;;7.70;97.30;;;;;;4918670;29;20189;-70
2020/12/17 16:51:47;;;;;;;15.03;8.07;;;7.70;97.30;;;;;;4918294;29;20477;-70
2020/12/17 16:54:13;;;;;;;18.87;8.30;;;7.70;97.30;;;;;;4918366;29;20421;-71
2020/12/17 16:56:39;;;;;;;11.40;7.37;;;7.70;97.30;;;;;;4918469;29;20432;-70
2020/12/17 16:59:04;;;;;;;16.60;8.03;;;7.70;97.30;;;;;;4919541;29;20272;-70
2020/12/17 17:01:30;;;;;;;13.27;7.40;;;7.60;97.30;;;;;;4919449;29;20990;-70
2020/12/17 17:03:56;;;;;;;13.77;7.63;;;7.60;97.30;;;;;;4918220;29;20173;-70
2020/12/17 17:06:21;;;;;;;15.03;8.77;;;7.60;97.30;;;;;;4918135;29;20242;-70
2020/12/17 17:08:47;;;;;;;14.37;8.07;;;7.50;97.30;;;;;;4918292;29;20181;-71
2020/12/17 17:11:13;;;;;;;15.80;8.80;;;7.50;97.30;;;;;;4918316;29;20200;-70
2020/12/17 17:13:39;;;;;;;13.03;7.23;;;7.50;97.30;;;;;;4919469;29;20212;-70
2020/12/17 17:16:05;;;;;;;13.00;6.43;;;7.50;97.30;;;;;;4918344;29;20173;-70
2020/12/17 17:18:31;;;;;;;16.73;8.97;;;7.50;97.30;;;;;;4918174;29;20267;-70
2020/12/17 17:20:57;;;;;;;13.83;7.50;;;7.50;97.30;;;;;;4919546;29;20437;-71
2020/12/17 17:23:23;;;;;;;15.03;9.27;;;7.50;97.30;;;;;;4918330;29;20444;-70
2020/12/17 17:25:50;;;;;;;13.47;8.47;;;7.50;97.30;;;;;;4918042;29;20185;-70
2020/12/17 17:28:16;;;;;;;14.23;7.20;;;7.40;97.30;;;;;;4919466;29;20929;-70
2020/12/17 17:30:42;;;;;;;14.37;7.63;;;7.40;97.30;;;;;;4918093;29;20492;-70
2020/12/17 17:33:08;;;;;;;13.00;7.53;;;7.40;97.30;;;;;;4917423;29;20475;-70
2020/12/17 17:35:34;;;;;;;11.80;7.40;;;7.30;97.30;;;;;;4919197;29;20173;-70
2020/12/17 17:37:59;;;;;;;14.40;7.50;;;7.30;97.30;;;;;;4917723;29;20460;-70
2020/12/17 17:40:25;;;;;;;14.07;7.50;;;7.30;97.30;;;;;;4918933;29;20228;-71
2020/12/17 17:42:50;;;;;;;15.83;8.70;;;7.30;97.30;;;;;;4917563;29;20530;-70
2020/12/17 17:45:16;;;;;;;17.37;9.47;;;7.20;97.30;;;;;;4917618;29;20681;-70
2020/12/17 17:47:42;;;;;;;16.77;8.90;;;7.20;97.30;;;;;;4917597;29;20604;-70
2020/12/17 17:50:08;;;;;;;12.30;7.50;;;7.20;97.30;;;;;;4917499;29;20236;-70
2020/12/17 17:52:36;;;;;;;16.37;7.80;;;7.20;97.30;;;;;;4918775;29;20243;-70
2020/12/17 17:55:03;;;;;;;15.87;8.03;;;7.30;97.30;;;;;;4917231;29;20240;-70
2020/12/17 17:57:31;;;;;;;15.70;9.07;;;7.30;97.30;;;;;;4918659;29;20430;-71
2020/12/17 17:59:57;;;;;;;17.17;9.23;;;7.30;97.30;;;;;;4918473;29;20412;-71
2020/12/17 18:02:23;;;;;;;12.47;7.13;;;7.30;97.30;;;;;;4917142;29;20875;-70
2020/12/17 18:04:49;;;;;;;14.53;7.77;;;7.30;97.30;;;;;;4917322;29;20208;-71
2020/12/17 18:07:15;;;;;;;15.40;7.00;;;7.30;97.30;;;;;;4917158;29;20448;-71
2020/12/17 18:09:40;;;;;;;13.10;7.07;;;7.30;97.30;;;;;;4917205;29;20188;-71
2020/12/17 18:12:08;;;;;;;13.80;7.10;;;7.30;97.30;;;;;;4918159;29;20217;-70
2020/12/17 18:14:34;;;;;;;13.90;7.30;;;7.30;97.30;;;;;;4917187;29;20599;-70
2020/12/17 18:17:00;;;;;;;13.20;6.97;;;7.30;97.30;;;;;;4918161;29;20416;-71
2020/12/17 18:19:26;;;;;;;12.63;6.93;;;7.30;97.30;;;;;;4916289;29;20479;-70
2020/12/17 18:21:52;;;;;;;13.80;7.30;;;7.30;97.30;;;;;;4918241;29;20492;-70
2020/12/17 18:24:18;;;;;;;13.20;7.27;;;7.20;97.30;;;;;;4917806;29;20409;-71
2020/12/17 18:26:43;;;;;;;10.67;7.90;;;7.30;97.30;;;;;;4918275;29;20184;-70
2020/12/17 18:29:09;;;;;;;15.03;7.70;;;7.30;97.30;;;;;;4916787;29;20185;-70
2020/12/17 18:31:36;;;;;;;10.53;6.60;;;7.20;97.30;;;;;;4916705;29;20302;-70
2020/12/17 18:34:02;;;;;;;10.37;6.93;;;7.20;97.30;;;;;;4916438;29;20413;-70
2020/12/17 18:36:28;;;;;;;11.70;7.30;;;7.20;97.30;;;;;;4917822;29;20428;-70
2020/12/17 18:38:54;;;;;;;12.97;7.47;;;7.20;97.30;;;;;;4916354;29;20931;-70
2020/12/17 18:41:20;;;;;;;13.67;6.90;;;7.20;97.30;;;;;;4916547;29;20436;-70
2020/12/17 18:43:46;;;;;;;12.40;6.93;;;7.20;97.30;;;;;;4916442;29;20191;-70
2020/12/17 18:46:22;;;;;;;10.90;6.83;;;7.10;97.30;;;;;;4917783;29;20181;-71
2020/12/17 18:48:49;;;;;;;14.10;7.20;;;7.10;97.30;;;;;;4916367;29;20429;-70